Time;durP1;ratioP1;P1;durP2;ratioP2;P2;SDS_P1;SDS_P2;PMS_P1;PMS_P2;Temp;Humidity;BMP_temperature;BMP_pressure;BME280_temperature;BME280_humidity;BME280_pressure;Samples;Min_cycle;Max_cycle;Signal;HPM_P1;HPM_P2
2022/06/17 00:01:43;;;;;;;15.77;6.30;;;589.60;1971.20;;;;;;5093373;28;20016;-79
2022/06/17 00:04:10;;;;;;;15.65;7.13;;;589.60;1971.20;;;;;;5095912;28;20039;-79
2022/06/17 00:06:40;;;;;;;27.05;12.98;;;589.50;1971.20;;;;;;5097183;28;20027;-79
2022/06/17 00:09:07;;;;;;;34.70;13.55;;;589.40;1996.80;;;;;;5109991;28;20020;-79
2022/06/17 00:11:35;;;;;;;30.02;13.43;;;589.20;2022.40;;;;;;5104484;28;20058;-79
2022/06/17 00:14:00;;;;;;;33.50;11.45;;;589.40;1996.80;;;;;;5094680;28;20477;-80
2022/06/17 00:16:27;;;;;;;21.88;8.93;;;589.40;1996.80;;;;;;5093978;28;20066;-79
2022/06/17 00:18:53;;;;;;;17.15;7.35;;;589.30;1971.20;;;;;;5086199;28;20031;-80
2022/06/17 00:21:28;;;;;;;13.60;6.13;;;589.10;2022.40;;;;;;5095011;28;20016;-79
2022/06/17 00:23:54;;;;;;;12.38;6.53;;;589.10;2022.40;;;;;;5104853;28;20480;-79
2022/06/17 00:26:21;;;;;;;12.63;6.80;;;589.00;2048.00;;;;;;5094963;28;20027;-79
2022/06/17 00:28:48;;;;;;;12.90;5.47;;;588.80;2124.80;;;;;;5093553;28;20024;-79
2022/06/17 00:31:14;;;;;;;10.23;4.45;;;564.10;2176.00;;;;;;5092955;28;20015;-79
2022/06/17 00:33:40;;;;;;;14.45;4.47;;;564.00;2176.00;;;;;;5107733;28;20086;-78
2022/06/17 00:36:10;;;;;;;9.02;3.92;;;564.00;2227.20;;;;;;5094357;28;20064;-79
2022/06/17 00:38:37;;;;;;;7.65;4.28;;;564.00;2252.80;;;;;;5107079;28;20028;-79
2022/06/17 00:41:20;;;;;;;14.07;4.20;;;563.90;2252.80;;;;;;5109516;28;20046;-79
2022/06/17 00:43:46;;;;;;;10.32;4.70;;;564.00;2252.80;;;;;;5095310;28;20027;-79
2022/06/17 00:46:27;;;;;;;9.35;4.25;;;564.00;2227.20;;;;;;5095927;28;20020;-79
2022/06/17 00:49:26;;;;;;;8.27;4.13;;;564.00;2227.20;;;;;;5109087;28;20023;-78
2022/06/17 00:52:02;;;;;;;6.35;4.25;;;564.00;2252.80;;;;;;5108730;28;20099;-79
2022/06/17 00:54:52;;;;;;;10.13;4.00;;;564.10;2252.80;;;;;;5095771;28;20024;-79
2022/06/17 00:57:27;;;;;;;10.50;4.47;;;564.10;2227.20;;;;;;5092390;28;20030;-79
2022/06/17 01:00:05;;;;;;;7.47;3.80;;;564.10;2278.40;;;;;;5108741;28;20528;-79
2022/06/17 01:02:35;;;;;;;9.43;4.00;;;588.90;2201.60;;;;;;5109140;28;20035;-79
2022/06/17 01:05:03;;;;;;;10.77;5.80;;;589.10;2176.00;;;;;;5108457;28;20033;-80
2022/06/17 01:07:38;;;;;;;34.55;16.02;;;589.20;2150.40;;;;;;5106680;28;20024;-79
2022/06/17 01:10:09;;;;;;;64.55;29.23;;;589.30;2150.40;;;;;;5087684;28;20012;-79
2022/06/17 01:13:04;;;;;;;49.67;23.80;;;589.50;2099.20;;;;;;5096027;28;20034;-79
2022/06/17 01:15:33;;;;;;;17.83;9.27;;;589.30;2124.80;;;;;;5107406;28;20031;-79
2022/06/17 01:17:59;;;;;;;28.77;9.88;;;589.10;2124.80;;;;;;5086049;28;20060;-79
2022/06/17 01:20:26;;;;;;;22.98;7.13;;;589.30;2073.60;;;;;;5088260;28;20020;-79
2022/06/17 01:22:59;;;;;;;26.33;11.02;;;589.40;2022.40;;;;;;5093284;28;20381;-79
2022/06/17 01:25:34;;;;;;;37.08;18.17;;;589.50;2022.40;;;;;;5095629;28;20042;-79
2022/06/17 01:28:05;;;;;;;35.25;15.20;;;589.60;1996.80;;;;;;5093882;28;20019;-79
2022/06/17 01:30:41;;;;;;;23.25;13.38;;;589.70;1971.20;;;;;;5108715;28;20032;-79
2022/06/17 01:33:29;;;;;;;25.50;11.52;;;589.70;1971.20;;;;;;5108100;28;20084;-79
2022/06/17 01:36:13;;;;;;;18.88;9.10;;;614.40;1971.20;;;;;;5108695;28;20023;-80
2022/06/17 01:38:47;;;;;;;16.67;7.13;;;614.50;1971.20;;;;;;5092982;28;20062;-79
2022/06/17 01:41:14;;;;;;;15.07;5.68;;;614.50;1971.20;;;;;;5094035;28;20221;-79
2022/06/17 01:44:09;;;;;;;13.48;5.22;;;614.40;2099.20;;;;;;5106488;28;20094;-79
2022/06/17 01:46:41;;;;;;;13.38;3.60;;;614.40;2201.60;;;;;;5109933;28;20078;-79
2022/06/17 01:49:12;;;;;;;13.95;3.30;;;614.40;2252.80;;;;;;5107321;28;20068;-79
2022/06/17 01:51:44;;;;;;;16.40;4.80;;;589.70;2304.00;;;;;;5091784;28;20436;-79
2022/06/17 01:54:22;;;;;;;12.45;4.07;;;589.70;2278.40;;;;;;5095027;28;20020;-79
2022/06/17 01:56:52;;;;;;;11.57;3.85;;;589.70;2278.40;;;;;;5106191;28;20031;-79
2022/06/17 01:59:29;;;;;;;15.57;4.15;;;589.70;2304.00;;;;;;5107837;28;20554;-78
2022/06/17 02:01:58;;;;;;;6.93;3.40;;;589.70;2278.40;;;;;;5107682;28;20488;-79
2022/06/17 02:04:34;;;;;;;9.23;3.20;;;589.60;2278.40;;;;;;5107477;28;20031;-79
2022/06/17 02:07:13;;;;;;;8.02;3.78;;;589.70;2227.20;;;;;;5106584;28;20023;-79
2022/06/17 02:09:39;;;;;;;10.13;4.40;;;589.70;2227.20;;;;;;5087570;28;20079;-79
2022/06/17 02:12:05;;;;;;;16.40;4.25;;;589.70;2176.00;;;;;;5094583;28;20115;-79
2022/06/17 02:14:33;;;;;;;8.57;4.03;;;589.70;2201.60;;;;;;5113034;28;20016;-80
2022/06/17 02:16:59;;;;;;;9.10;3.97;;;589.70;2150.40;;;;;;5084668;28;20110;-79
2022/06/17 02:19:27;;;;;;;11.95;3.53;;;589.60;2176.00;;;;;;5087430;28;20478;-79
2022/06/17 02:22:25;;;;;;;10.63;3.58;;;589.60;2124.80;;;;;;5107686;28;20028;-79
2022/06/17 02:25:06;;;;;;;7.45;3.08;;;589.70;2099.20;;;;;;5101844;28;20008;-80
2022/06/17 02:27:34;;;;;;;13.40;3.13;;;589.60;2124.80;;;;;;5109079;28;20078;-79
2022/06/17 02:30:05;;;;;;;6.65;2.72;;;589.60;2099.20;;;;;;5084840;28;20035;-79
2022/06/17 02:32:32;;;;;;;9.65;2.72;;;589.50;2124.80;;;;;;5110299;28;20092;-79
2022/06/17 02:35:25;;;;;;;11.38;2.95;;;589.50;2150.40;;;;;;5092420;28;20034;-79
2022/06/17 02:37:52;;;;;;;8.10;2.58;;;589.60;2124.80;;;;;;5011971;28;20037;-78
2022/06/17 02:40:39;;;;;;;12.48;2.72;;;589.60;2150.40;;;;;;5010007;28;20099;-79
2022/06/17 02:43:11;;;;;;;11.00;4.00;;;589.60;2124.80;;;;;;5011204;28;20037;-79
2022/06/17 02:45:42;;;;;;;6.70;2.97;;;589.60;2150.40;;;;;;5013499;28;20018;-79
2022/06/17 02:48:20;;;;;;;8.38;3.20;;;589.50;2150.40;;;;;;5013188;28;20479;-80
2022/06/17 02:50:46;;;;;;;11.20;3.30;;;589.50;2124.80;;;;;;5011244;28;20061;-78
2022/06/17 02:53:12;;;;;;;8.93;3.28;;;589.50;2150.40;;;;;;5030103;28;20493;-79
2022/06/17 02:55:42;;;;;;;5.95;2.63;;;589.50;2150.40;;;;;;5029669;28;20040;-79
2022/06/17 02:58:22;;;;;;;8.40;3.25;;;589.50;2201.60;;;;;;5029978;28;20029;-79
2022/06/17 03:00:51;;;;;;;4.43;2.35;;;589.40;2201.60;;;;;;5012890;28;20044;-79
2022/06/17 03:03:20;;;;;;;8.45;3.45;;;589.50;2201.60;;;;;;5029564;28;20029;-79
2022/06/17 03:05:46;;;;;;;11.68;3.00;;;589.30;2227.20;;;;;;5013337;28;20060;-79
2022/06/17 03:08:26;;;;;;;10.40;3.33;;;589.10;2304.00;;;;;;5029442;28;20563;-80
2022/06/17 03:10:56;;;;;;;9.63;2.85;;;589.00;2329.60;;;;;;5029865;28;20052;-79
2022/06/17 03:13:35;;;;;;;9.32;2.85;;;589.00;2329.60;;;;;;5010449;28;20025;-79
2022/06/17 03:16:03;;;;;;;9.40;3.05;;;589.00;2329.60;;;;;;5089697;28;20112;-78
2022/06/17 03:18:30;;;;;;;4.60;2.90;;;589.10;2355.20;;;;;;5093901;28;20032;-78
2022/06/17 03:20:57;;;;;;;6.47;2.70;;;589.10;2329.60;;;;;;5093671;28;20047;-79
2022/06/17 03:23:33;;;;;;;14.00;2.95;;;588.90;2355.20;;;;;;5090310;28;20180;-77
2022/06/17 03:26:27;;;;;;;7.35;3.25;;;588.90;2432.00;;;;;;5104706;28;20157;-78
2022/06/17 03:28:53;;;;;;;9.95;3.30;;;588.90;2406.40;;;;;;5104698;28;20028;-78
2022/06/17 03:31:49;;;;;;;7.15;3.20;;;588.80;2432.00;;;;;;5096307;28;20028;-79
2022/06/17 03:34:18;;;;;;;;;;;589.00;2406.40;;;;;;5095976;28;20054;-78
2022/06/17 03:36:50;;;;;;;7.55;2.75;;;588.90;2406.40;;;;;;5109041;28;19964;-78
2022/06/17 03:39:31;;;;;;;4.78;2.97;;;588.90;2432.00;;;;;;5112268;28;20028;-79
2022/06/17 03:42:11;;;;;;;12.52;3.15;;;588.90;2432.00;;;;;;5110578;28;20521;-79
2022/06/17 03:45:12;;;;;;;7.65;3.10;;;588.90;2432.00;;;;;;5109042;28;20561;-79
2022/06/17 03:47:49;;;;;;;12.90;3.15;;;588.90;2432.00;;;;;;5104225;28;20028;-78
2022/06/17 03:50:26;;;;;;;13.90;3.33;;;589.00;2432.00;;;;;;5096349;28;20016;-78
2022/06/17 03:52:57;;;;;;;8.18;2.92;;;589.10;2432.00;;;;;;5110391;28;20137;-78
2022/06/17 03:55:23;;;;;;;7.07;2.80;;;589.00;2432.00;;;;;;5096662;28;20019;-78
2022/06/17 03:57:54;;;;;;;9.75;3.03;;;589.40;2432.00;;;;;;5094231;28;20032;-78
2022/06/17 04:00:51;;;;;;;11.85;4.20;;;589.00;2432.00;;;;;;5111675;28;20032;-78
2022/06/17 04:03:22;;;;;;;12.90;2.58;;;589.00;2432.00;;;;;;5092248;28;20133;-78
2022/06/17 04:05:54;;;;;;;16.63;3.28;;;589.00;2432.00;;;;;;5109518;28;20016;-78
2022/06/17 04:08:19;;;;;;;6.25;3.25;;;589.00;2432.00;;;;;;5111465;28;20032;-78
2022/06/17 04:10:45;;;;;;;11.63;3.22;;;589.00;2432.00;;;;;;5109127;28;20477;-79
2022/06/17 04:13:21;;;;;;;9.40;3.22;;;588.90;2432.00;;;;;;5096133;28;20380;-78
2022/06/17 04:16:22;;;;;;;10.32;3.53;;;588.90;2432.00;;;;;;5108959;28;20007;-78
2022/06/17 04:18:48;;;;;;;6.78;2.97;;;588.90;2432.00;;;;;;5108268;28;20063;-78
2022/06/17 04:21:14;;;;;;;7.97;2.90;;;589.00;2432.00;;;;;;5097157;28;20104;-79
2022/06/17 04:23:41;;;;;;;10.25;3.30;;;588.90;2432.00;;;;;;5093083;28;20024;-78
2022/06/17 04:26:18;;;;;;;12.63;3.92;;;589.00;2432.00;;;;;;5109136;28;20469;-78
2022/06/17 04:29:19;;;;;;;12.25;3.72;;;589.00;2432.00;;;;;;5112202;28;20039;-78
2022/06/17 04:31:49;;;;;;;16.42;4.05;;;589.10;2432.00;;;;;;5012230;28;20026;-78
2022/06/17 04:34:18;;;;;;;9.82;2.80;;;589.30;2355.20;;;;;;4996186;28;20029;-79
2022/06/17 04:36:46;;;;;;;12.23;3.38;;;589.30;2304.00;;;;;;5011991;28;20103;-80
2022/06/17 04:39:15;;;;;;;9.57;2.92;;;589.30;2380.80;;;;;;4995007;28;20033;-79
2022/06/17 04:41:43;;;;;;;8.93;3.42;;;589.30;2329.60;;;;;;5012406;28;20050;-79
2022/06/17 04:44:13;;;;;;;12.13;3.05;;;589.50;2278.40;;;;;;5009769;28;20032;-79
2022/06/17 04:46:55;;;;;;;17.60;3.38;;;589.40;2304.00;;;;;;4996127;28;20570;-80
2022/06/17 04:49:24;;;;;;;9.60;3.33;;;589.50;2252.80;;;;;;5027457;28;20053;-79
2022/06/17 04:51:58;;;;;;;12.70;3.15;;;589.50;2278.40;;;;;;4993517;28;20026;-82
2022/06/17 04:54:25;;;;;;;9.07;3.10;;;589.60;2227.20;;;;;;4995588;28;20044;-78
2022/06/17 04:56:52;;;;;;;11.73;3.30;;;589.50;2252.80;;;;;;5011957;28;20507;-78
2022/06/17 04:59:41;;;;;;;13.52;3.22;;;589.40;2278.40;;;;;;5012164;28;20045;-79
2022/06/17 05:02:14;;;;;;;10.75;3.13;;;589.30;2252.80;;;;;;5025222;28;20034;-79
2022/06/17 05:04:41;;;;;;;5.57;2.30;;;589.20;2329.60;;;;;;5008206;28;20065;-84
2022/06/17 05:07:07;;;;;;;12.00;3.00;;;589.50;2355.20;;;;;;5006013;28;20021;-79
2022/06/17 05:09:43;;;;;;;6.32;2.35;;;589.20;2355.20;;;;;;5092265;28;20012;-79
2022/06/17 05:12:12;;;;;;;;;;;589.30;2355.20;;;;;;5108899;28;20028;-80
2022/06/17 05:14:42;;;;;;;11.18;2.70;;;589.30;2355.20;;;;;;5095653;28;19907;-78
2022/06/17 05:17:07;;;;;;;9.43;2.63;;;589.60;2278.40;;;;;;5110721;28;20039;-80
2022/06/17 05:19:33;;;;;;;9.45;2.40;;;589.60;2278.40;;;;;;5092753;28;20027;-79
2022/06/17 05:22:02;;;;;;;14.48;3.42;;;589.60;2278.40;;;;;;5110823;28;20054;-80
2022/06/17 05:24:28;;;;;;;5.05;2.42;;;589.70;2252.80;;;;;;5110962;28;20095;-80
2022/06/17 05:26:54;;;;;;;10.45;2.40;;;589.70;2201.60;;;;;;5095461;28;20049;-78
2022/06/17 05:29:20;;;;;;;13.77;2.72;;;589.70;2124.80;;;;;;5095090;28;20036;-78
2022/06/17 05:31:49;;;;;;;6.68;2.50;;;614.40;2099.20;;;;;;5092569;28;20380;-79
2022/06/17 05:34:16;;;;;;;6.20;3.22;;;614.40;2124.80;;;;;;5095672;28;20093;-80
2022/06/17 05:36:41;;;;;;;11.73;3.03;;;589.70;2150.40;;;;;;5095403;28;20469;-81
2022/06/17 05:39:07;;;;;;;6.40;2.70;;;589.70;2227.20;;;;;;5110576;28;20023;-79
2022/06/17 05:41:33;;;;;;;11.77;3.10;;;589.60;2278.40;;;;;;5092362;28;20047;-78
2022/06/17 05:43:59;;;;;;;6.18;2.80;;;589.60;2329.60;;;;;;5095007;28;20031;-80
2022/06/17 05:46:24;;;;;;;11.88;3.00;;;589.60;2329.60;;;;;;5095454;28;20025;-78
2022/06/17 05:48:50;;;;;;;9.07;3.75;;;589.70;2355.20;;;;;;5095224;28;20030;-80
2022/06/17 05:51:16;;;;;;;5.75;3.30;;;614.40;2329.60;;;;;;5095493;28;20026;-80
2022/06/17 05:53:41;;;;;;;8.10;2.25;;;614.60;2278.40;;;;;;5095237;28;20016;-79
2022/06/17 05:56:07;;;;;;;10.80;2.50;;;614.60;2227.20;;;;;;5095577;28;20027;-81
2022/06/17 05:58:33;;;;;;;8.55;2.38;;;614.70;2176.00;;;;;;5092305;28;20511;-82
2022/06/17 06:00:59;;;;;;;9.15;2.60;;;614.80;2099.20;;;;;;5095368;28;20076;-80
2022/06/17 06:03:27;;;;;;;15.45;3.60;;;614.80;2176.00;;;;;;5094698;28;20032;-77
2022/06/17 06:05:56;;;;;;;6.82;3.20;;;615.00;2099.20;;;;;;5108302;28;20023;-79
2022/06/17 06:08:22;;;;;;;8.15;3.03;;;614.90;2099.20;;;;;;5094447;28;20115;-81
2022/06/17 06:10:48;;;;;;;14.40;3.03;;;615.00;2073.60;;;;;;5110561;28;20043;-78
2022/06/17 06:13:20;;;;;;;8.50;3.13;;;615.10;2048.00;;;;;;5106597;28;20105;-79
2022/06/17 06:15:48;;;;;;;10.02;3.42;;;615.00;2073.60;;;;;;5091541;28;20534;-78
2022/06/17 06:18:16;;;;;;;8.02;3.42;;;615.20;2099.20;;;;;;5093931;28;20042;-79
2022/06/17 06:20:42;;;;;;;11.10;2.53;;;615.20;2099.20;;;;;;5108843;28;20023;-79
2022/06/17 06:23:08;;;;;;;10.13;3.10;;;615.20;2150.40;;;;;;5083895;27;20019;-79
2022/06/17 06:25:35;;;;;;;11.93;2.78;;;615.30;2073.60;;;;;;5115371;27;20025;-80
2022/06/17 06:28:26;;;;;;;11.52;3.58;;;640.10;2124.80;;;;;;5115151;27;20072;-79
2022/06/17 06:30:57;;;;;;;13.55;3.58;;;640.20;2022.40;;;;;;5102019;28;20028;-80
2022/06/17 06:33:23;;;;;;;13.00;2.90;;;640.10;2048.00;;;;;;5113773;27;20042;-77
2022/06/17 06:35:48;;;;;;;11.25;3.67;;;640.20;2073.60;;;;;;5133440;27;20027;-77
2022/06/17 06:38:14;;;;;;;8.48;3.30;;;640.30;2150.40;;;;;;5133281;27;20060;-78
2022/06/17 06:40:40;;;;;;;9.13;2.95;;;640.40;2150.40;;;;;;5088061;28;20509;-79
2022/06/17 06:43:16;;;;;;;12.00;4.28;;;640.40;2201.60;;;;;;5071227;28;20021;-79
2022/06/17 06:45:43;;;;;;;11.95;3.67;;;640.50;2176.00;;;;;;5106585;28;20020;-79
2022/06/17 06:48:11;;;;;;;9.75;3.55;;;640.60;2124.80;;;;;;5106536;28;20020;-80
2022/06/17 06:50:38;;;;;;;8.50;3.30;;;640.60;2176.00;;;;;;5074112;28;20418;-79
2022/06/17 06:53:05;;;;;;;6.55;3.50;;;640.60;2227.20;;;;;;5073933;28;20043;-79
2022/06/17 06:55:31;;;;;;;8.55;3.30;;;640.70;2201.60;;;;;;5092480;28;20541;-78
2022/06/17 06:58:00;;;;;;;6.90;3.30;;;640.60;2201.60;;;;;;5092125;28;20166;-78
2022/06/17 07:00:34;;;;;;;6.93;3.17;;;640.70;2278.40;;;;;;5092131;28;20657;-78
2022/06/17 07:03:00;;;;;;;10.27;4.20;;;640.80;2176.00;;;;;;5105705;28;20028;-79
2022/06/17 07:05:26;;;;;;;10.25;3.72;;;665.70;2176.00;;;;;;5074160;28;20016;-78
2022/06/17 07:07:53;;;;;;;9.55;3.83;;;665.70;2099.20;;;;;;5073916;28;20031;-78
2022/06/17 07:10:23;;;;;;;7.82;3.15;;;666.00;2048.00;;;;;;5092465;28;20038;-79
2022/06/17 07:12:49;;;;;;;13.10;3.38;;;666.00;2124.80;;;;;;5092125;28;20069;-79
2022/06/17 07:15:15;;;;;;;6.50;3.10;;;666.20;2099.20;;;;;;5073905;28;20020;-78
2022/06/17 07:17:53;;;;;;;10.75;3.72;;;666.20;2022.40;;;;;;5103508;28;20035;-77
2022/06/17 07:20:19;;;;;;;9.38;2.90;;;666.20;2022.40;;;;;;5107234;28;20462;-76
2022/06/17 07:22:44;;;;;;;8.23;3.80;;;666.10;1971.20;;;;;;5092171;28;20039;-76
2022/06/17 07:25:10;;;;;;;5.68;3.45;;;666.20;1945.60;;;;;;5091692;28;20405;-76
2022/06/17 07:27:36;;;;;;;6.07;3.13;;;666.20;1945.60;;;;;;5092069;28;20025;-77
2022/06/17 07:30:02;;;;;;;8.85;3.22;;;666.20;2022.40;;;;;;5106951;28;20020;-76
2022/06/17 07:32:27;;;;;;;7.03;3.70;;;666.30;1945.60;;;;;;5104954;28;20035;-75
2022/06/17 07:34:53;;;;;;;9.52;3.15;;;666.30;1920.00;;;;;;5104876;28;20032;-77
2022/06/17 07:40:17;;;;;;;7.03;3.38;;;691.20;1894.40;;;;;;5008409;28;20439;-77
2022/06/17 07:42:44;;;;;;;7.53;3.38;;;691.30;1894.40;;;;;;5012122;28;20026;-79
2022/06/17 07:45:13;;;;;;;5.32;3.50;;;691.40;1894.40;;;;;;5009730;28;20041;-78
2022/06/17 07:47:42;;;;;;;9.88;2.90;;;691.60;1894.40;;;;;;4991537;28;20037;-80
2022/06/17 07:50:12;;;;;;;9.70;3.47;;;691.60;1868.80;;;;;;4990342;28;20081;-77
2022/06/17 07:52:38;;;;;;;9.23;3.00;;;;;;;;;;5005146;28;20808;-77
2022/06/17 07:55:05;;;;;;;6.10;3.40;;;691.70;1868.80;;;;;;5002624;28;20031;-77
2022/06/17 07:57:31;;;;;;;7.18;3.40;;;691.70;1843.20;;;;;;4990261;28;20046;-78
2022/06/17 07:59:57;;;;;;;7.55;2.78;;;691.70;1894.40;;;;;;4995252;28;20034;-77
2022/06/17 08:02:23;;;;;;;9.65;3.03;;;691.80;1792.00;;;;;;4998523;28;20153;-76
2022/06/17 08:04:49;;;;;;;6.97;3.15;;;691.80;1740.80;;;;;;5003992;28;20030;-79
2022/06/17 08:07:15;;;;;;;8.00;3.05;;;692.00;1792.00;;;;;;4990159;28;20449;-78
2022/06/17 08:09:42;;;;;;;4.35;2.60;;;716.80;1766.40;;;;;;4989833;28;20034;-77
2022/06/17 08:12:11;;;;;;;7.10;3.08;;;716.90;1740.80;;;;;;4989861;28;20023;-78
2022/06/17 08:14:43;;;;;;;6.75;2.88;;;716.90;1689.60;;;;;;5006294;28;20117;-76
2022/06/17 08:17:12;;;;;;;11.60;3.00;;;716.80;1740.80;;;;;;5122349;27;20110;-77
2022/06/17 08:19:38;;;;;;;9.10;2.72;;;716.90;1740.80;;;;;;5122606;27;20027;-76
2022/06/17 08:22:04;;;;;;;4.25;2.40;;;716.90;1715.20;;;;;;5129596;27;20047;-77
2022/06/17 08:24:30;;;;;;;10.77;2.75;;;716.90;1715.20;;;;;;5108597;27;20103;-78
2022/06/17 08:26:56;;;;;;;10.80;3.10;;;716.80;1664.00;;;;;;5135805;27;20380;-77
2022/06/17 08:29:22;;;;;;;7.25;2.60;;;692.10;1612.80;;;;;;5108716;28;20501;-80
2022/06/17 08:31:48;;;;;;;7.00;2.80;;;692.10;1612.80;;;;;;5115171;28;20027;-82
2022/06/17 08:34:14;;;;;;;7.65;2.70;;;692.00;1612.80;;;;;;5115179;28;20031;-80
2022/06/17 08:36:40;;;;;;;7.97;4.85;;;692.00;1612.80;;;;;;5115416;28;20020;-81
2022/06/17 08:39:10;;;;;;;8.00;3.00;;;692.10;1664.00;;;;;;5114840;28;20019;-80
2022/06/17 08:41:52;;;;;;;8.75;2.88;;;692.10;1638.40;;;;;;5101271;28;20047;-78
2022/06/17 08:44:38;;;;;;;6.22;2.35;;;716.90;1664.00;;;;;;5127947;27;20023;-80
2022/06/17 08:47:19;;;;;;;6.15;3.20;;;716.80;1638.40;;;;;;5096230;28;20032;-79
2022/06/17 08:50:26;;;;;;;6.25;4.53;;;716.90;1638.40;;;;;;5096037;28;20030;-79
2022/06/17 08:53:12;;;;;;;4.82;2.53;;;717.10;1587.20;;;;;;5113434;28;20012;-83
2022/06/17 08:55:43;;;;;;;;;;;717.40;1587.20;;;;;;5097113;28;20062;-80
2022/06/17 08:58:36;;;;;;;15.52;6.88;;;717.40;1536.00;;;;;;5112620;28;19962;-82
2022/06/17 09:01:38;;;;;;;4.28;2.78;;;717.50;1561.60;;;;;;5115029;27;20034;-83
2022/06/17 09:04:30;;;;;;;4.80;2.53;;;717.70;1484.80;;;;;;5124415;27;20023;-81
2022/06/17 09:07:23;;;;;;;7.30;2.88;;;742.40;1459.20;;;;;;5101991;28;20019;-83
2022/06/17 09:09:55;;;;;;;6.47;2.45;;;717.70;1459.20;;;;;;5129617;27;20047;-83
2022/06/17 09:12:33;;;;;;;6.28;2.70;;;742.40;1459.20;;;;;;5106703;27;20012;-81
2022/06/17 09:15:17;;;;;;;6.75;2.28;;;742.40;1510.40;;;;;;5117174;27;20030;-83
2022/06/17 09:18:28;;;;;;;3.75;2.25;;;742.40;1484.80;;;;;;5135652;27;20031;-83
2022/06/17 09:21:20;;;;;;;4.70;2.67;;;742.50;1484.80;;;;;;4957943;28;20043;-84
2022/06/17 09:23:46;;;;;;;4.50;2.40;;;742.50;1433.60;;;;;;4966303;28;20089;-81
2022/06/17 09:26:24;;;;;;;3.97;1.95;;;742.50;1382.40;;;;;;4956153;28;20441;-79
2022/06/17 09:29:07;;;;;;;4.70;2.17;;;742.60;1382.40;;;;;;4968420;28;20120;-81
2022/06/17 09:31:38;;;;;;;4.32;1.85;;;742.80;1433.60;;;;;;4950681;28;20591;-81
2022/06/17 09:34:19;;;;;;;4.32;2.03;;;742.90;1408.00;;;;;;4966823;28;20035;-81
2022/06/17 09:36:58;;;;;;;9.32;2.58;;;743.10;1356.80;;;;;;4953963;28;20038;-80
2022/06/17 09:39:48;;;;;;;6.40;2.00;;;743.10;1356.80;;;;;;4972697;28;20042;-80
2022/06/17 09:42:23;;;;;;;13.75;2.55;;;768.10;1331.20;;;;;;4972393;28;20042;-79
2022/06/17 09:45:12;;;;;;;3.75;1.88;;;768.20;1331.20;;;;;;4949785;29;20090;-79
2022/06/17 09:48:00;;;;;;;6.72;2.30;;;768.50;1305.60;;;;;;4968266;28;20031;-79
2022/06/17 09:50:43;;;;;;;3.42;1.90;;;768.50;1305.60;;;;;;4967670;28;20098;-79
2022/06/17 09:53:21;;;;;;;8.18;2.40;;;768.40;1305.60;;;;;;4955980;28;20022;-79
2022/06/17 09:55:53;;;;;;;3.60;2.28;;;768.20;1331.20;;;;;;4955844;28;20081;-79
2022/06/17 09:58:33;;;;;;;2.85;2.15;;;768.30;1331.20;;;;;;5055395;28;20035;-81
2022/06/17 10:01:00;;;;;;;8.32;2.17;;;768.20;1331.20;;;;;;5084915;28;20032;-80
2022/06/17 10:03:33;;;;;;;4.60;2.22;;;768.10;1356.80;;;;;;5106460;28;20081;-77
2022/06/17 10:05:59;;;;;;;6.55;2.53;;;768.10;1356.80;;;;;;5084758;28;20037;-79
2022/06/17 10:08:36;;;;;;;7.50;2.15;;;743.30;1331.20;;;;;;5098022;28;20020;-80
2022/06/17 10:11:07;;;;;;;5.88;2.10;;;743.10;1305.60;;;;;;5113788;28;20378;-83
2022/06/17 10:14:03;;;;;;;2.53;1.95;;;743.30;1356.80;;;;;;5113482;28;20020;-81
2022/06/17 10:19:56;;;;;;;4.18;1.90;;;768.10;1305.60;;;;;;5100388;28;20074;-80
2022/06/17 10:22:41;;;;;;;3.58;1.90;;;743.10;1305.60;;;;;;5085953;28;20486;-82
2022/06/17 10:25:37;;;;;;;3.67;2.10;;;743.10;1305.60;;;;;;5092325;28;20040;-78
2022/06/17 10:28:38;;;;;;;5.70;2.20;;;768.10;1305.60;;;;;;5091180;28;20024;-78
2022/06/17 10:31:36;;;;;;;3.97;1.90;;;768.10;1254.40;;;;;;5083021;28;20032;-78
2022/06/17 10:34:10;;;;;;;4.47;2.13;;;743.30;1305.60;;;;;;5086020;28;20020;-79
2022/06/17 10:36:37;;;;;;;4.28;1.80;;;768.10;1280.00;;;;;;5091807;28;20020;-79
2022/06/17 10:39:03;;;;;;;5.40;2.30;;;768.20;1254.40;;;;;;5091271;28;20531;-75
2022/06/17 10:41:30;;;;;;;4.20;1.95;;;768.60;1280.00;;;;;;5091242;28;20202;-78
2022/06/17 10:43:56;;;;;;;5.53;2.80;;;793.60;1254.40;;;;;;5094348;28;20028;-78
2022/06/17 10:46:28;;;;;;;5.18;2.35;;;793.70;1254.40;;;;;;5112147;28;20381;-78
2022/06/17 10:49:06;;;;;;;9.70;2.42;;;768.90;1228.80;;;;;;5094511;28;20414;-77
2022/06/17 10:51:34;;;;;;;4.18;2.33;;;793.70;1280.00;;;;;;5111614;28;20015;-77
2022/06/17 10:54:13;;;;;;;4.43;2.58;;;794.20;1280.00;;;;;;5094093;28;20492;-77
2022/06/17 10:57:08;;;;;;;4.38;2.50;;;794.30;1228.80;;;;;;5092594;28;20106;-78
2022/06/17 10:59:44;;;;;;;4.65;2.35;;;794.30;1203.20;;;;;;5099564;28;20043;-78
2022/06/17 11:02:22;;;;;;;4.32;2.97;;;794.40;1177.60;;;;;;5132615;27;20046;-78
2022/06/17 11:04:54;;;;;;;4.38;2.72;;;794.30;1203.20;;;;;;5133055;28;20028;-78
2022/06/17 11:07:37;;;;;;;7.47;2.65;;;819.20;1177.60;;;;;;5132827;28;20016;-78
2022/06/17 11:10:15;;;;;;;6.57;2.60;;;794.40;1177.60;;;;;;5133079;28;20020;-78
2022/06/17 11:12:44;;;;;;;5.22;2.58;;;819.20;1177.60;;;;;;5132815;28;20026;-78
2022/06/17 11:15:20;;;;;;;6.22;3.17;;;819.20;1177.60;;;;;;5132898;28;20022;-79
2022/06/17 11:17:50;;;;;;;3.85;2.75;;;794.40;1177.60;;;;;;5118216;28;20362;-78
2022/06/17 11:20:16;;;;;;;5.72;2.65;;;794.30;1177.60;;;;;;5120948;28;20020;-78
2022/06/17 11:22:57;;;;;;;4.18;2.33;;;794.20;1177.60;;;;;;5111720;28;20023;-79
2022/06/17 11:25:34;;;;;;;7.40;2.42;;;794.50;1152.00;;;;;;5111898;28;20024;-78
2022/06/17 11:28:12;;;;;;;6.40;2.35;;;819.40;1126.40;;;;;;5111936;28;20216;-78
2022/06/17 11:30:51;;;;;;;4.93;2.10;;;819.60;1152.00;;;;;;5111757;28;20094;-79
2022/06/17 11:33:54;;;;;;;8.05;2.22;;;819.30;1152.00;;;;;;5111001;28;20035;-79
2022/06/17 11:36:21;;;;;;;4.55;2.65;;;794.50;1177.60;;;;;;5029363;28;20057;-78
2022/06/17 11:38:48;;;;;;;3.80;2.53;;;819.30;1126.40;;;;;;5012503;28;20041;-78
2022/06/17 11:41:21;;;;;;;5.47;2.20;;;819.50;1126.40;;;;;;5025258;28;20403;-78
2022/06/17 11:43:47;;;;;;;3.17;2.33;;;819.60;1126.40;;;;;;5020298;28;20079;-78
2022/06/17 11:46:25;;;;;;;5.60;2.65;;;819.70;1126.40;;;;;;5012244;28;20042;-78
2022/06/17 11:48:59;;;;;;;3.70;2.42;;;819.90;1100.80;;;;;;5030356;28;20100;-78
2022/06/17 11:51:32;;;;;;;3.92;2.47;;;820.00;1100.80;;;;;;5016621;28;20031;-82
2022/06/17 11:54:08;;;;;;;5.95;2.70;;;819.30;1126.40;;;;;;5014251;28;20030;-80
2022/06/17 11:56:41;;;;;;;5.75;2.42;;;794.40;1152.00;;;;;;5014174;28;20047;-80
2022/06/17 11:59:16;;;;;;;5.15;2.67;;;819.20;1126.40;;;;;;5016023;28;20474;-82
2022/06/17 12:01:52;;;;;;;5.40;2.80;;;819.60;1075.20;;;;;;5014760;28;20044;-81
2022/06/17 12:04:42;;;;;;;7.03;2.60;;;819.60;1100.80;;;;;;5031147;28;20072;-81
2022/06/17 12:07:38;;;;;;;4.75;2.30;;;819.80;1049.60;;;;;;5029594;28;20446;-80
2022/06/17 12:10:27;;;;;;;6.22;2.28;;;819.80;1049.60;;;;;;5031573;28;20132;-81
2022/06/17 12:12:58;;;;;;;5.07;2.22;;;844.80;1075.20;;;;;;5058019;28;20032;-81
2022/06/17 12:15:34;;;;;;;3.38;2.30;;;820.00;1075.20;;;;;;5093124;28;20035;-80
2022/06/17 12:18:02;;;;;;;10.95;3.22;;;820.10;1049.60;;;;;;5074540;28;20020;-81
2022/06/17 12:20:37;;;;;;;3.55;2.30;;;820.10;1075.20;;;;;;5076621;28;20031;-80
2022/06/17 12:23:18;;;;;;;6.13;3.23;;;819.70;1075.20;;;;;;5091416;28;20141;-80
2022/06/17 12:25:51;;;;;;;6.45;2.30;;;819.80;1100.80;;;;;;5093185;28;20024;-79
2022/06/17 12:28:38;;;;;;;4.82;2.40;;;819.90;1075.20;;;;;;5090494;28;20040;-80
2022/06/17 12:31:13;;;;;;;5.72;2.53;;;820.10;998.40;;;;;;5092952;28;20492;-81
2022/06/17 12:34:08;;;;;;;7.80;2.50;;;844.80;1049.60;;;;;;5074211;28;20035;-81
2022/06/17 12:36:46;;;;;;;6.28;2.22;;;844.80;998.40;;;;;;5075647;28;20056;-80
2022/06/17 12:39:49;;;;;;;5.93;2.58;;;844.80;998.40;;;;;;5076405;28;20097;-81
2022/06/17 12:42:34;;;;;;;6.07;2.22;;;820.00;998.40;;;;;;5076235;28;20060;-80
2022/06/17 12:45:22;;;;;;;5.05;2.38;;;820.00;998.40;;;;;;5092125;28;20023;-80
2022/06/17 12:48:21;;;;;;;4.28;2.03;;;820.10;1024.00;;;;;;5092944;28;20020;-80
2022/06/17 12:54:02;;;;;;;8.50;2.42;;;819.20;1075.20;;;;;;5092709;28;20042;-80
2022/06/17 12:56:31;;;;;;;5.30;2.78;;;819.20;1075.20;;;;;;5076190;28;20020;-80
2022/06/17 12:58:59;;;;;;;4.10;2.50;;;819.60;1049.60;;;;;;5075865;28;20028;-80